sensor_id;sensor_type;location;lat;lon;timestamp;P1;durP1;ratioP1;P2;durP2;ratioP2
13034;SDS011;6584;48.022;11.810;2022-10-16T00:01:47;4.55;;;1.55;;
13034;SDS011;6584;48.022;11.810;2022-10-16T00:04:13;1.90;;;1.40;;
13034;SDS011;6584;48.022;11.810;2022-10-16T00:06:39;2.10;;;1.42;;
13034;SDS011;6584;48.022;11.810;2022-10-16T00:09:04;5.70;;;1.60;;
13034;SDS011;6584;48.022;11.810;2022-10-16T00:11:32;4.60;;;1.60;;
13034;SDS011;6584;48.022;11.810;2022-10-16T00:14:02;3.20;;;1.60;;
13034;SDS011;6584;48.022;11.810;2022-10-16T00:16:30;1.58;;;1.42;;
13034;SDS011;6584;48.022;11.810;2022-10-16T00:18:56;1.35;;;1.25;;
13034;SDS011;6584;48.022;11.810;2022-10-16T00:21:23;1.90;;;1.40;;
13034;SDS011;6584;48.022;11.810;2022-10-16T00:23:51;1.40;;;1.20;;
13034;SDS011;6584;48.022;11.810;2022-10-16T00:26:18;1.55;;;1.20;;
13034;SDS011;6584;48.022;11.810;2022-10-16T00:28:48;5.00;;;1.50;;
13034;SDS011;6584;48.022;11.810;2022-10-16T00:31:15;1.60;;;1.50;;
13034;SDS011;6584;48.022;11.810;2022-10-16T00:33:42;2.45;;;1.60;;
13034;SDS011;6584;48.022;11.810;2022-10-16T00:36:10;1.63;;;1.30;;
13034;SDS011;6584;48.022;11.810;2022-10-16T00:38:37;3.47;;;1.60;;
13034;SDS011;6584;48.022;11.810;2022-10-16T00:41:03;1.90;;;1.10;;
13034;SDS011;6584;48.022;11.810;2022-10-16T00:43:46;2.00;;;1.17;;
13034;SDS011;6584;48.022;11.810;2022-10-16T00:51:41;2.83;;;1.55;;
13034;SDS011;6584;48.022;11.810;2022-10-16T00:54:13;1.73;;;1.20;;
13034;SDS011;6584;48.022;11.810;2022-10-16T00:56:42;2.45;;;1.35;;
13034;SDS011;6584;48.022;11.810;2022-10-16T00:59:16;5.40;;;1.55;;
13034;SDS011;6584;48.022;11.810;2022-10-16T01:01:45;1.20;;;1.10;;
13034;SDS011;6584;48.022;11.810;2022-10-16T01:04:10;1.40;;;1.30;;
13034;SDS011;6584;48.022;11.810;2022-10-16T01:07:20;1.95;;;1.30;;
13034;SDS011;6584;48.022;11.810;2022-10-16T01:17:57;1.40;;;1.30;;
13034;SDS011;6584;48.022;11.810;2022-10-16T01:20:30;1.48;;;1.38;;
13034;SDS011;6584;48.022;11.810;2022-10-16T01:28:41;2.70;;;1.30;;
13034;SDS011;6584;48.022;11.810;2022-10-16T01:31:17;1.90;;;1.50;;
13034;SDS011;6584;48.022;11.810;2022-10-16T01:33:46;1.90;;;1.23;;
13034;SDS011;6584;48.022;11.810;2022-10-16T01:36:17;1.40;;;1.30;;
13034;SDS011;6584;48.022;11.810;2022-10-16T01:38:49;2.85;;;1.42;;
13034;SDS011;6584;48.022;11.810;2022-10-16T01:41:21;1.63;;;1.20;;
13034;SDS011;6584;48.022;11.810;2022-10-16T01:43:53;1.48;;;1.35;;
13034;SDS011;6584;48.022;11.810;2022-10-16T01:46:27;2.55;;;1.30;;
13034;SDS011;6584;48.022;11.810;2022-10-16T01:48:55;1.67;;;1.25;;
13034;SDS011;6584;48.022;11.810;2022-10-16T01:51:22;1.70;;;1.30;;
13034;SDS011;6584;48.022;11.810;2022-10-16T01:53:50;1.40;;;1.25;;
13034;SDS011;6584;48.022;11.810;2022-10-16T01:56:19;3.72;;;1.50;;
13034;SDS011;6584;48.022;11.810;2022-10-16T02:01:37;2.72;;;1.52;;
13034;SDS011;6584;48.022;11.810;2022-10-16T02:07:05;3.55;;;1.52;;
13034;SDS011;6584;48.022;11.810;2022-10-16T02:09:32;3.72;;;1.40;;
13034;SDS011;6584;48.022;11.810;2022-10-16T02:11:59;1.92;;;1.27;;
13034;SDS011;6584;48.022;11.810;2022-10-16T02:14:31;2.10;;;1.55;;
13034;SDS011;6584;48.022;11.810;2022-10-16T02:16:57;3.28;;;1.50;;
13034;SDS011;6584;48.022;11.810;2022-10-16T02:19:23;2.10;;;1.40;;
13034;SDS011;6584;48.022;11.810;2022-10-16T02:21:50;1.73;;;1.27;;
13034;SDS011;6584;48.022;11.810;2022-10-16T02:24:23;1.48;;;1.27;;
13034;SDS011;6584;48.022;11.810;2022-10-16T02:27:10;1.98;;;1.38;;
13034;SDS011;6584;48.022;11.810;2022-10-16T02:29:43;2.95;;;1.40;;
13034;SDS011;6584;48.022;11.810;2022-10-16T02:32:15;3.10;;;1.30;;
13034;SDS011;6584;48.022;11.810;2022-10-16T02:34:46;1.35;;;1.25;;
13034;SDS011;6584;48.022;11.810;2022-10-16T02:37:14;1.40;;;1.30;;
13034;SDS011;6584;48.022;11.810;2022-10-16T02:39:41;2.50;;;1.40;;
13034;SDS011;6584;48.022;11.810;2022-10-16T02:42:11;1.45;;;1.35;;
13034;SDS011;6584;48.022;11.810;2022-10-16T02:44:38;1.73;;;1.50;;
13034;SDS011;6584;48.022;11.810;2022-10-16T02:47:03;2.08;;;1.27;;
13034;SDS011;6584;48.022;11.810;2022-10-16T02:49:29;1.42;;;1.33;;
13034;SDS011;6584;48.022;11.810;2022-10-16T02:51:54;2.05;;;1.70;;
13034;SDS011;6584;48.022;11.810;2022-10-16T02:54:20;2.65;;;1.42;;
13034;SDS011;6584;48.022;11.810;2022-10-16T02:56:45;1.65;;;1.55;;
13034;SDS011;6584;48.022;11.810;2022-10-16T02:59:11;2.45;;;1.33;;
13034;SDS011;6584;48.022;11.810;2022-10-16T03:01:36;1.75;;;1.50;;
13034;SDS011;6584;48.022;11.810;2022-10-16T03:04:02;3.38;;;1.50;;
13034;SDS011;6584;48.022;11.810;2022-10-16T03:06:28;2.63;;;1.30;;
13034;SDS011;6584;48.022;11.810;2022-10-16T03:08:53;2.15;;;1.60;;
13034;SDS011;6584;48.022;11.810;2022-10-16T03:11:19;2.13;;;1.48;;
13034;SDS011;6584;48.022;11.810;2022-10-16T03:13:44;2.67;;;1.73;;
13034;SDS011;6584;48.022;11.810;2022-10-16T03:16:10;3.20;;;1.85;;
13034;SDS011;6584;48.022;11.810;2022-10-16T03:18:35;1.88;;;1.50;;
13034;SDS011;6584;48.022;11.810;2022-10-16T03:21:01;2.13;;;1.60;;
13034;SDS011;6584;48.022;11.810;2022-10-16T03:23:27;1.60;;;1.50;;
13034;SDS011;6584;48.022;11.810;2022-10-16T03:25:53;2.80;;;1.80;;
13034;SDS011;6584;48.022;11.810;2022-10-16T03:28:19;2.17;;;1.98;;
13034;SDS011;6584;48.022;11.810;2022-10-16T03:30:44;2.03;;;1.90;;
13034;SDS011;6584;48.022;11.810;2022-10-16T03:33:10;3.20;;;2.10;;
13034;SDS011;6584;48.022;11.810;2022-10-16T03:35:35;1.80;;;1.70;;
13034;SDS011;6584;48.022;11.810;2022-10-16T03:38:01;2.20;;;2.00;;
13034;SDS011;6584;48.022;11.810;2022-10-16T03:40:26;3.80;;;1.67;;
13034;SDS011;6584;48.022;11.810;2022-10-16T03:42:52;1.88;;;1.77;;
13034;SDS011;6584;48.022;11.810;2022-10-16T03:45:20;1.63;;;1.52;;
13034;SDS011;6584;48.022;11.810;2022-10-16T03:47:46;2.25;;;1.90;;
13034;SDS011;6584;48.022;11.810;2022-10-16T03:50:12;1.70;;;1.60;;
13034;SDS011;6584;48.022;11.810;2022-10-16T03:52:38;3.78;;;2.17;;
13034;SDS011;6584;48.022;11.810;2022-10-16T03:55:03;4.32;;;2.60;;
13034;SDS011;6584;48.022;11.810;2022-10-16T03:57:29;3.63;;;3.17;;
13034;SDS011;6584;48.022;11.810;2022-10-16T03:59:54;2.65;;;2.45;;
13034;SDS011;6584;48.022;11.810;2022-10-16T04:02:20;2.33;;;2.13;;
13034;SDS011;6584;48.022;11.810;2022-10-16T04:04:45;1.95;;;1.83;;
13034;SDS011;6584;48.022;11.810;2022-10-16T04:07:11;2.67;;;1.80;;
13034;SDS011;6584;48.022;11.810;2022-10-16T04:09:37;1.77;;;1.67;;
13034;SDS011;6584;48.022;11.810;2022-10-16T04:12:02;2.10;;;2.00;;
13034;SDS011;6584;48.022;11.810;2022-10-16T04:14:28;2.75;;;2.42;;
13034;SDS011;6584;48.022;11.810;2022-10-16T04:16:53;3.55;;;3.10;;
13034;SDS011;6584;48.022;11.810;2022-10-16T04:19:19;3.05;;;2.60;;
13034;SDS011;6584;48.022;11.810;2022-10-16T04:21:44;2.40;;;2.20;;
13034;SDS011;6584;48.022;11.810;2022-10-16T04:24:10;1.70;;;1.60;;
13034;SDS011;6584;48.022;11.810;2022-10-16T04:26:36;3.75;;;1.60;;
13034;SDS011;6584;48.022;11.810;2022-10-16T04:29:02;1.85;;;1.70;;
13034;SDS011;6584;48.022;11.810;2022-10-16T04:31:28;1.48;;;1.38;;
13034;SDS011;6584;48.022;11.810;2022-10-16T04:33:53;2.58;;;1.70;;
13034;SDS011;6584;48.022;11.810;2022-10-16T04:36:19;1.80;;;1.70;;
13034;SDS011;6584;48.022;11.810;2022-10-16T04:38:44;1.90;;;1.70;;
13034;SDS011;6584;48.022;11.810;2022-10-16T04:41:10;2.53;;;1.63;;
13034;SDS011;6584;48.022;11.810;2022-10-16T04:43:35;2.47;;;1.60;;
13034;SDS011;6584;48.022;11.810;2022-10-16T04:46:01;1.73;;;1.63;;
13034;SDS011;6584;48.022;11.810;2022-10-16T04:48:26;8.70;;;1.95;;
13034;SDS011;6584;48.022;11.810;2022-10-16T04:50:52;1.90;;;1.63;;
13034;SDS011;6584;48.022;11.810;2022-10-16T04:53:17;1.70;;;1.60;;
13034;SDS011;6584;48.022;11.810;2022-10-16T04:55:43;2.05;;;1.60;;
13034;SDS011;6584;48.022;11.810;2022-10-16T04:58:09;2.63;;;1.60;;
13034;SDS011;6584;48.022;11.810;2022-10-16T05:00:35;2.95;;;1.58;;
13034;SDS011;6584;48.022;11.810;2022-10-16T05:03:01;1.67;;;1.58;;
13034;SDS011;6584;48.022;11.810;2022-10-16T05:05:30;1.75;;;1.65;;
13034;SDS011;6584;48.022;11.810;2022-10-16T05:07:56;3.17;;;1.70;;
13034;SDS011;6584;48.022;11.810;2022-10-16T05:10:21;2.85;;;1.80;;
13034;SDS011;6584;48.022;11.810;2022-10-16T05:12:47;2.75;;;1.60;;
13034;SDS011;6584;48.022;11.810;2022-10-16T05:15:13;1.77;;;1.67;;
13034;SDS011;6584;48.022;11.810;2022-10-16T05:17:39;2.95;;;1.80;;
13034;SDS011;6584;48.022;11.810;2022-10-16T05:20:04;2.45;;;1.70;;
13034;SDS011;6584;48.022;11.810;2022-10-16T05:22:30;3.45;;;1.90;;
13034;SDS011;6584;48.022;11.810;2022-10-16T05:24:56;2.60;;;1.80;;
13034;SDS011;6584;48.022;11.810;2022-10-16T05:27:21;2.08;;;1.85;;
13034;SDS011;6584;48.022;11.810;2022-10-16T05:29:47;2.42;;;1.45;;
13034;SDS011;6584;48.022;11.810;2022-10-16T05:32:17;1.80;;;1.70;;
13034;SDS011;6584;48.022;11.810;2022-10-16T05:34:44;2.20;;;2.00;;
13034;SDS011;6584;48.022;11.810;2022-10-16T05:37:10;2.20;;;1.80;;
13034;SDS011;6584;48.022;11.810;2022-10-16T05:39:36;1.98;;;1.70;;
13034;SDS011;6584;48.022;11.810;2022-10-16T05:42:02;2.00;;;1.80;;
13034;SDS011;6584;48.022;11.810;2022-10-16T05:44:29;1.65;;;1.50;;
13034;SDS011;6584;48.022;11.810;2022-10-16T05:46:54;2.30;;;1.83;;
13034;SDS011;6584;48.022;11.810;2022-10-16T05:49:20;2.15;;;1.90;;
13034;SDS011;6584;48.022;11.810;2022-10-16T05:51:45;5.90;;;1.70;;
13034;SDS011;6584;48.022;11.810;2022-10-16T05:54:11;2.13;;;1.90;;
13034;SDS011;6584;48.022;11.810;2022-10-16T05:56:37;2.28;;;1.80;;
13034;SDS011;6584;48.022;11.810;2022-10-16T05:59:03;2.33;;;1.80;;
13034;SDS011;6584;48.022;11.810;2022-10-16T06:01:29;2.30;;;1.73;;
13034;SDS011;6584;48.022;11.810;2022-10-16T06:03:56;2.88;;;2.00;;
13034;SDS011;6584;48.022;11.810;2022-10-16T06:06:22;1.60;;;1.50;;
13034;SDS011;6584;48.022;11.810;2022-10-16T06:08:51;3.05;;;1.88;;
13034;SDS011;6584;48.022;11.810;2022-10-16T06:11:18;1.90;;;1.80;;
13034;SDS011;6584;48.022;11.810;2022-10-16T06:13:49;3.60;;;1.92;;
13034;SDS011;6584;48.022;11.810;2022-10-16T06:16:15;4.03;;;2.00;;
13034;SDS011;6584;48.022;11.810;2022-10-16T06:18:41;2.70;;;2.00;;
13034;SDS011;6584;48.022;11.810;2022-10-16T06:21:07;2.00;;;1.90;;
13034;SDS011;6584;48.022;11.810;2022-10-16T06:23:38;5.03;;;2.00;;
13034;SDS011;6584;48.022;11.810;2022-10-16T06:26:05;1.92;;;1.83;;
13034;SDS011;6584;48.022;11.810;2022-10-16T06:28:34;3.58;;;1.95;;
13034;SDS011;6584;48.022;11.810;2022-10-16T06:31:01;2.90;;;1.90;;
13034;SDS011;6584;48.022;11.810;2022-10-16T06:33:27;4.13;;;1.90;;
13034;SDS011;6584;48.022;11.810;2022-10-16T06:35:53;3.47;;;1.85;;
13034;SDS011;6584;48.022;11.810;2022-10-16T06:38:24;2.88;;;2.00;;
13034;SDS011;6584;48.022;11.810;2022-10-16T06:40:50;3.08;;;2.33;;
13034;SDS011;6584;48.022;11.810;2022-10-16T06:43:15;5.53;;;3.58;;
13034;SDS011;6584;48.022;11.810;2022-10-16T06:45:41;4.55;;;3.00;;
13034;SDS011;6584;48.022;11.810;2022-10-16T06:48:06;3.28;;;2.22;;
13034;SDS011;6584;48.022;11.810;2022-10-16T06:50:32;2.75;;;2.20;;
13034;SDS011;6584;48.022;11.810;2022-10-16T06:52:57;4.28;;;3.63;;
13034;SDS011;6584;48.022;11.810;2022-10-16T06:55:23;4.28;;;2.90;;
13034;SDS011;6584;48.022;11.810;2022-10-16T06:57:49;2.22;;;2.03;;
13034;SDS011;6584;48.022;11.810;2022-10-16T07:00:15;2.50;;;2.30;;
13034;SDS011;6584;48.022;11.810;2022-10-16T07:02:40;2.60;;;2.40;;
13034;SDS011;6584;48.022;11.810;2022-10-16T07:05:06;6.72;;;2.28;;
13034;SDS011;6584;48.022;11.810;2022-10-16T07:07:32;4.03;;;2.20;;
13034;SDS011;6584;48.022;11.810;2022-10-16T07:09:57;2.63;;;2.40;;
13034;SDS011;6584;48.022;11.810;2022-10-16T07:12:23;2.60;;;2.40;;
13034;SDS011;6584;48.022;11.810;2022-10-16T07:14:48;4.85;;;2.38;;
13034;SDS011;6584;48.022;11.810;2022-10-16T07:17:17;3.20;;;2.10;;
13034;SDS011;6584;48.022;11.810;2022-10-16T07:19:42;2.40;;;2.20;;
13034;SDS011;6584;48.022;11.810;2022-10-16T07:22:08;4.13;;;2.47;;
13034;SDS011;6584;48.022;11.810;2022-10-16T07:24:33;2.85;;;2.63;;
13034;SDS011;6584;48.022;11.810;2022-10-16T07:26:59;2.90;;;2.70;;
13034;SDS011;6584;48.022;11.810;2022-10-16T07:29:25;2.85;;;2.65;;
13034;SDS011;6584;48.022;11.810;2022-10-16T07:31:50;2.83;;;2.40;;
13034;SDS011;6584;48.022;11.810;2022-10-16T07:34:16;3.17;;;2.20;;
13034;SDS011;6584;48.022;11.810;2022-10-16T07:36:43;3.55;;;2.40;;
13034;SDS011;6584;48.022;11.810;2022-10-16T07:39:09;4.28;;;2.10;;
13034;SDS011;6584;48.022;11.810;2022-10-16T07:41:34;2.15;;;1.95;;
13034;SDS011;6584;48.022;11.810;2022-10-16T07:44:02;2.15;;;1.95;;
13034;SDS011;6584;48.022;11.810;2022-10-16T07:46:28;3.33;;;2.25;;
13034;SDS011;6584;48.022;11.810;2022-10-16T07:48:54;2.67;;;2.10;;
13034;SDS011;6584;48.022;11.810;2022-10-16T07:51:20;3.53;;;2.00;;
13034;SDS011;6584;48.022;11.810;2022-10-16T07:53:47;2.03;;;1.80;;
13034;SDS011;6584;48.022;11.810;2022-10-16T07:56:14;1.90;;;1.80;;
13034;SDS011;6584;48.022;11.810;2022-10-16T07:58:41;3.33;;;2.05;;
13034;SDS011;6584;48.022;11.810;2022-10-16T08:01:07;2.95;;;2.00;;
13034;SDS011;6584;48.022;11.810;2022-10-16T08:03:34;4.15;;;2.00;;
13034;SDS011;6584;48.022;11.810;2022-10-16T08:06:00;2.63;;;2.40;;
13034;SDS011;6584;48.022;11.810;2022-10-16T08:08:26;6.32;;;2.78;;
13034;SDS011;6584;48.022;11.810;2022-10-16T08:10:53;3.22;;;2.58;;
13034;SDS011;6584;48.022;11.810;2022-10-16T08:13:19;2.58;;;2.35;;
13034;SDS011;6584;48.022;11.810;2022-10-16T08:15:45;2.95;;;2.35;;
13034;SDS011;6584;48.022;11.810;2022-10-16T08:18:11;3.17;;;2.20;;
13034;SDS011;6584;48.022;11.810;2022-10-16T08:20:38;4.43;;;2.00;;
13034;SDS011;6584;48.022;11.810;2022-10-16T08:23:04;3.42;;;2.70;;
13034;SDS011;6584;48.022;11.810;2022-10-16T08:25:30;4.15;;;3.53;;
13034;SDS011;6584;48.022;11.810;2022-10-16T08:27:56;2.90;;;2.70;;
13034;SDS011;6584;48.022;11.810;2022-10-16T08:30:22;4.10;;;3.05;;
13034;SDS011;6584;48.022;11.810;2022-10-16T08:32:48;3.65;;;2.47;;
13034;SDS011;6584;48.022;11.810;2022-10-16T08:35:15;2.28;;;2.00;;
13034;SDS011;6584;48.022;11.810;2022-10-16T08:37:40;3.53;;;2.70;;
13034;SDS011;6584;48.022;11.810;2022-10-16T08:40:07;2.90;;;2.13;;
13034;SDS011;6584;48.022;11.810;2022-10-16T08:45:51;2.65;;;2.45;;
13034;SDS011;6584;48.022;11.810;2022-10-16T08:48:49;6.75;;;5.30;;
13034;SDS011;6584;48.022;11.810;2022-10-16T08:53:52;2.42;;;2.05;;
13034;SDS011;6584;48.022;11.810;2022-10-16T08:56:21;2.25;;;2.05;;
13034;SDS011;6584;48.022;11.810;2022-10-16T08:58:47;3.63;;;2.00;;
13034;SDS011;6584;48.022;11.810;2022-10-16T09:01:15;2.38;;;2.17;;
13034;SDS011;6584;48.022;11.810;2022-10-16T09:03:48;5.43;;;2.80;;
13034;SDS011;6584;48.022;11.810;2022-10-16T09:09:38;6.20;;;5.60;;
13034;SDS011;6584;48.022;11.810;2022-10-16T09:11:52;3.50;;;2.50;;
13034;SDS011;6584;48.022;11.810;2022-10-16T09:14:39;6.63;;;3.35;;
13034;SDS011;6584;48.022;11.810;2022-10-16T09:25:43;2.88;;;2.25;;
13034;SDS011;6584;48.022;11.810;2022-10-16T09:28:14;2.70;;;2.15;;
13034;SDS011;6584;48.022;11.810;2022-10-16T09:30:40;5.80;;;2.70;;
13034;SDS011;6584;48.022;11.810;2022-10-16T09:33:07;4.85;;;3.17;;
13034;SDS011;6584;48.022;11.810;2022-10-16T09:35:38;3.92;;;2.60;;
13034;SDS011;6584;48.022;11.810;2022-10-16T09:38:07;3.08;;;2.10;;
13034;SDS011;6584;48.022;11.810;2022-10-16T09:40:37;3.78;;;2.47;;
13034;SDS011;6584;48.022;11.810;2022-10-16T09:45:55;4.75;;;2.17;;
13034;SDS011;6584;48.022;11.810;2022-10-16T09:48:47;2.05;;;1.88;;
13034;SDS011;6584;48.022;11.810;2022-10-16T09:51:18;2.80;;;2.03;;
13034;SDS011;6584;48.022;11.810;2022-10-16T09:53:53;1.88;;;1.77;;
13034;SDS011;6584;48.022;11.810;2022-10-16T09:56:22;4.28;;;1.60;;
13034;SDS011;6584;48.022;11.810;2022-10-16T09:58:50;1.80;;;1.70;;
13034;SDS011;6584;48.022;11.810;2022-10-16T10:01:17;1.73;;;1.60;;
13034;SDS011;6584;48.022;11.810;2022-10-16T10:03:44;2.17;;;1.60;;
13034;SDS011;6584;48.022;11.810;2022-10-16T10:06:18;1.88;;;1.73;;
13034;SDS011;6584;48.022;11.810;2022-10-16T10:12:00;5.70;;;4.13;;
13034;SDS011;6584;48.022;11.810;2022-10-16T10:14:38;2.97;;;2.72;;
13034;SDS011;6584;48.022;11.810;2022-10-16T10:22:41;1.90;;;1.80;;
13034;SDS011;6584;48.022;11.810;2022-10-16T10:35:22;2.45;;;2.25;;
13034;SDS011;6584;48.022;11.810;2022-10-16T10:38:00;4.57;;;2.88;;
13034;SDS011;6584;48.022;11.810;2022-10-16T10:46:34;5.93;;;3.78;;
13034;SDS011;6584;48.022;11.810;2022-10-16T10:56:45;3.50;;;2.42;;
13034;SDS011;6584;48.022;11.810;2022-10-16T11:02:18;2.95;;;2.20;;
13034;SDS011;6584;48.022;11.810;2022-10-16T11:05:04;2.80;;;2.08;;
13034;SDS011;6584;48.022;11.810;2022-10-16T11:07:57;3.72;;;2.25;;
13034;SDS011;6584;48.022;11.810;2022-10-16T11:10:27;2.47;;;2.03;;
13034;SDS011;6584;48.022;11.810;2022-10-16T11:16:14;1.95;;;1.80;;
13034;SDS011;6584;48.022;11.810;2022-10-16T11:19:05;1.70;;;1.48;;
13034;SDS011;6584;48.022;11.810;2022-10-16T11:21:49;2.30;;;1.67;;
13034;SDS011;6584;48.022;11.810;2022-10-16T11:24:37;1.52;;;1.40;;
13034;SDS011;6584;48.022;11.810;2022-10-16T11:27:14;1.13;;;1.05;;
13034;SDS011;6584;48.022;11.810;2022-10-16T11:29:58;1.48;;;1.38;;
13034;SDS011;6584;48.022;11.810;2022-10-16T11:32:32;1.30;;;1.10;;
13034;SDS011;6584;48.022;11.810;2022-10-16T11:35:10;2.08;;;1.10;;
13034;SDS011;6584;48.022;11.810;2022-10-16T11:37:43;1.10;;;1.00;;
13034;SDS011;6584;48.022;11.810;2022-10-16T11:40:16;2.15;;;1.02;;
13034;SDS011;6584;48.022;11.810;2022-10-16T11:42:50;2.35;;;1.10;;
13034;SDS011;6584;48.022;11.810;2022-10-16T11:45:36;1.27;;;1.17;;
13034;SDS011;6584;48.022;11.810;2022-10-16T11:50:43;1.30;;;1.20;;
13034;SDS011;6584;48.022;11.810;2022-10-16T11:53:39;1.80;;;1.70;;
13034;SDS011;6584;48.022;11.810;2022-10-16T11:56:11;1.55;;;1.10;;
13034;SDS011;6584;48.022;11.810;2022-10-16T11:58:41;2.47;;;1.20;;
13034;SDS011;6584;48.022;11.810;2022-10-16T12:04:22;2.05;;;1.30;;
13034;SDS011;6584;48.022;11.810;2022-10-16T12:07:14;1.20;;;1.10;;
13034;SDS011;6584;48.022;11.810;2022-10-16T12:09:45;1.08;;;0.98;;
13034;SDS011;6584;48.022;11.810;2022-10-16T12:12:23;2.30;;;1.20;;
13034;SDS011;6584;48.022;11.810;2022-10-16T12:15:03;2.47;;;1.20;;
13034;SDS011;6584;48.022;11.810;2022-10-16T12:17:44;2.40;;;1.23;;
13034;SDS011;6584;48.022;11.810;2022-10-16T12:22:48;1.33;;;1.23;;
13034;SDS011;6584;48.022;11.810;2022-10-16T12:25:35;2.00;;;1.10;;
13034;SDS011;6584;48.022;11.810;2022-10-16T12:30:32;1.60;;;1.30;;
13034;SDS011;6584;48.022;11.810;2022-10-16T12:33:04;1.30;;;1.15;;
13034;SDS011;6584;48.022;11.810;2022-10-16T12:35:33;1.20;;;1.10;;
13034;SDS011;6584;48.022;11.810;2022-10-16T12:38:21;1.65;;;1.23;;
13034;SDS011;6584;48.022;11.810;2022-10-16T12:40:57;1.75;;;1.25;;
13034;SDS011;6584;48.022;11.810;2022-10-16T12:43:35;1.20;;;1.10;;
13034;SDS011;6584;48.022;11.810;2022-10-16T12:48:33;1.33;;;1.20;;
13034;SDS011;6584;48.022;11.810;2022-10-16T12:51:09;1.02;;;1.02;;
13034;SDS011;6584;48.022;11.810;2022-10-16T12:53:36;1.00;;;1.00;;
13034;SDS011;6584;48.022;11.810;2022-10-16T12:56:16;1.50;;;1.20;;
13034;SDS011;6584;48.022;11.810;2022-10-16T13:01:47;1.20;;;1.10;;
13034;SDS011;6584;48.022;11.810;2022-10-16T13:04:22;1.98;;;1.20;;
13034;SDS011;6584;48.022;11.810;2022-10-16T13:12:12;1.20;;;1.10;;
13034;SDS011;6584;48.022;11.810;2022-10-16T13:17:42;1.35;;;1.00;;
13034;SDS011;6584;48.022;11.810;2022-10-16T13:28:16;1.90;;;1.25;;
13034;SDS011;6584;48.022;11.810;2022-10-16T13:30:50;2.22;;;1.10;;
13034;SDS011;6584;48.022;11.810;2022-10-16T13:33:37;1.80;;;1.10;;
13034;SDS011;6584;48.022;11.810;2022-10-16T13:36:06;1.65;;;1.17;;
13034;SDS011;6584;48.022;11.810;2022-10-16T13:38:34;1.30;;;1.20;;
13034;SDS011;6584;48.022;11.810;2022-10-16T13:41:02;1.08;;;1.00;;
13034;SDS011;6584;48.022;11.810;2022-10-16T13:46:12;1.30;;;1.20;;
13034;SDS011;6584;48.022;11.810;2022-10-16T13:48:39;1.90;;;1.20;;
13034;SDS011;6584;48.022;11.810;2022-10-16T13:53:39;1.23;;;1.13;;
13034;SDS011;6584;48.022;11.810;2022-10-16T13:56:07;1.30;;;1.20;;
13034;SDS011;6584;48.022;11.810;2022-10-16T13:58:43;1.00;;;1.00;;
13034;SDS011;6584;48.022;11.810;2022-10-16T14:01:19;1.10;;;1.05;;
13034;SDS011;6584;48.022;11.810;2022-10-16T14:03:49;1.30;;;1.20;;
13034;SDS011;6584;48.022;11.810;2022-10-16T14:06:17;1.55;;;1.27;;
13034;SDS011;6584;48.022;11.810;2022-10-16T14:08:48;1.92;;;1.10;;
13034;SDS011;6584;48.022;11.810;2022-10-16T14:11:45;3.92;;;1.20;;
13034;SDS011;6584;48.022;11.810;2022-10-16T14:14:20;1.30;;;1.13;;
13034;SDS011;6584;48.022;11.810;2022-10-16T14:16:46;1.92;;;1.10;;
13034;SDS011;6584;48.022;11.810;2022-10-16T14:19:15;1.10;;;1.00;;
13034;SDS011;6584;48.022;11.810;2022-10-16T14:21:45;1.48;;;1.13;;
13034;SDS011;6584;48.022;11.810;2022-10-16T14:24:33;1.45;;;1.35;;
13034;SDS011;6584;48.022;11.810;2022-10-16T14:26:58;2.33;;;1.10;;
13034;SDS011;6584;48.022;11.810;2022-10-16T14:29:26;1.33;;;1.23;;
13034;SDS011;6584;48.022;11.810;2022-10-16T14:32:02;1.88;;;1.05;;
13034;SDS011;6584;48.022;11.810;2022-10-16T14:34:34;2.05;;;1.17;;
13034;SDS011;6584;48.022;11.810;2022-10-16T14:37:05;1.30;;;1.20;;
13034;SDS011;6584;48.022;11.810;2022-10-16T14:39:39;1.20;;;1.10;;
13034;SDS011;6584;48.022;11.810;2022-10-16T14:42:11;1.20;;;1.10;;
13034;SDS011;6584;48.022;11.810;2022-10-16T14:44:41;1.23;;;1.13;;
13034;SDS011;6584;48.022;11.810;2022-10-16T14:47:12;1.40;;;1.30;;
13034;SDS011;6584;48.022;11.810;2022-10-16T14:49:41;1.20;;;1.10;;
13034;SDS011;6584;48.022;11.810;2022-10-16T14:52:08;1.25;;;1.15;;
13034;SDS011;6584;48.022;11.810;2022-10-16T14:54:35;1.10;;;1.00;;
13034;SDS011;6584;48.022;11.810;2022-10-16T14:57:01;1.40;;;1.30;;
13034;SDS011;6584;48.022;11.810;2022-10-16T15:01:52;2.78;;;1.48;;
13034;SDS011;6584;48.022;11.810;2022-10-16T15:04:18;1.75;;;1.63;;
13034;SDS011;6584;48.022;11.810;2022-10-16T15:06:44;4.43;;;2.08;;
13034;SDS011;6584;48.022;11.810;2022-10-16T15:09:09;3.15;;;1.90;;
13034;SDS011;6584;48.022;11.810;2022-10-16T15:11:35;2.92;;;1.70;;
13034;SDS011;6584;48.022;11.810;2022-10-16T15:14:01;2.88;;;1.83;;
13034;SDS011;6584;48.022;11.810;2022-10-16T15:16:28;1.98;;;1.80;;
13034;SDS011;6584;48.022;11.810;2022-10-16T15:18:54;3.03;;;2.08;;
13034;SDS011;6584;48.022;11.810;2022-10-16T15:21:30;3.13;;;2.08;;
13034;SDS011;6584;48.022;11.810;2022-10-16T15:23:56;3.85;;;2.20;;
13034;SDS011;6584;48.022;11.810;2022-10-16T15:26:24;2.63;;;2.00;;
13034;SDS011;6584;48.022;11.810;2022-10-16T15:28:51;2.30;;;2.00;;
13034;SDS011;6584;48.022;11.810;2022-10-16T15:31:16;3.03;;;2.50;;
13034;SDS011;6584;48.022;11.810;2022-10-16T15:33:42;7.07;;;3.22;;
13034;SDS011;6584;48.022;11.810;2022-10-16T15:36:07;3.05;;;2.38;;
13034;SDS011;6584;48.022;11.810;2022-10-16T15:38:33;3.25;;;2.40;;
13034;SDS011;6584;48.022;11.810;2022-10-16T15:40:59;3.83;;;2.60;;
13034;SDS011;6584;48.022;11.810;2022-10-16T15:43:24;2.88;;;2.20;;
13034;SDS011;6584;48.022;11.810;2022-10-16T15:48:26;3.35;;;2.08;;
13034;SDS011;6584;48.022;11.810;2022-10-16T15:50:52;2.25;;;1.90;;
13034;SDS011;6584;48.022;11.810;2022-10-16T15:53:18;4.20;;;2.00;;
13034;SDS011;6584;48.022;11.810;2022-10-16T15:55:43;3.38;;;2.08;;
13034;SDS011;6584;48.022;11.810;2022-10-16T15:58:09;3.42;;;2.10;;
13034;SDS011;6584;48.022;11.810;2022-10-16T16:00:35;2.35;;;1.90;;
13034;SDS011;6584;48.022;11.810;2022-10-16T16:03:00;4.10;;;2.05;;
13034;SDS011;6584;48.022;11.810;2022-10-16T16:05:26;3.97;;;3.10;;
13034;SDS011;6584;48.022;11.810;2022-10-16T16:07:52;4.63;;;2.67;;
13034;SDS011;6584;48.022;11.810;2022-10-16T16:10:18;3.92;;;2.40;;
13034;SDS011;6584;48.022;11.810;2022-10-16T16:12:46;4.28;;;2.10;;
13034;SDS011;6584;48.022;11.810;2022-10-16T16:15:16;5.28;;;2.33;;
13034;SDS011;6584;48.022;11.810;2022-10-16T16:17:43;4.93;;;2.30;;
13034;SDS011;6584;48.022;11.810;2022-10-16T16:20:09;8.00;;;2.70;;
13034;SDS011;6584;48.022;11.810;2022-10-16T16:22:35;2.63;;;2.30;;
13034;SDS011;6584;48.022;11.810;2022-10-16T16:25:00;2.88;;;2.13;;
13034;SDS011;6584;48.022;11.810;2022-10-16T16:27:26;2.63;;;2.30;;
13034;SDS011;6584;48.022;11.810;2022-10-16T16:29:54;3.13;;;2.33;;
13034;SDS011;6584;48.022;11.810;2022-10-16T16:32:20;4.88;;;2.45;;
13034;SDS011;6584;48.022;11.810;2022-10-16T16:34:46;5.18;;;2.50;;
13034;SDS011;6584;48.022;11.810;2022-10-16T16:37:11;7.32;;;2.83;;
13034;SDS011;6584;48.022;11.810;2022-10-16T16:39:37;3.40;;;2.50;;
13034;SDS011;6584;48.022;11.810;2022-10-16T16:42:02;4.75;;;2.55;;
13034;SDS011;6584;48.022;11.810;2022-10-16T16:44:29;4.28;;;2.90;;
13034;SDS011;6584;48.022;11.810;2022-10-16T16:46:55;5.03;;;2.80;;
13034;SDS011;6584;48.022;11.810;2022-10-16T16:49:20;5.43;;;4.60;;
13034;SDS011;6584;48.022;11.810;2022-10-16T16:51:46;18.13;;;14.20;;
13034;SDS011;6584;48.022;11.810;2022-10-16T16:54:12;15.35;;;11.82;;
13034;SDS011;6584;48.022;11.810;2022-10-16T16:56:38;8.35;;;6.97;;
13034;SDS011;6584;48.022;11.810;2022-10-16T16:59:10;4.82;;;4.32;;
13034;SDS011;6584;48.022;11.810;2022-10-16T17:01:38;4.15;;;3.60;;
13034;SDS011;6584;48.022;11.810;2022-10-16T17:04:05;3.78;;;3.28;;
13034;SDS011;6584;48.022;11.810;2022-10-16T17:06:31;4.28;;;2.58;;